createdAt,value
2023-05-06T00:03:01.902Z,75.5
2023-05-06T00:07:24.099Z,75.5
2023-05-06T00:12:30.522Z,75.3
2023-05-06T00:18:32.919Z,75.6
2023-05-06T00:23:03.241Z,75.4
2023-05-06T00:27:49.664Z,75.6
2023-05-06T00:32:56.142Z,75.3
2023-05-06T00:38:02.406Z,75.3
2023-05-06T00:43:09.059Z,75.9
2023-05-06T00:53:21.733Z,75.3
2023-05-06T00:58:48.118Z,76.3
2023-05-06T01:08:40.859Z,76.5
2023-05-06T01:18:53.623Z,76.3
2023-05-06T01:23:59.992Z,76.3
2023-05-06T01:29:50.454Z,76.3
2023-05-06T01:34:12.780Z,76.4
2023-05-06T01:39:19.113Z,76.4
2023-05-06T01:44:29.570Z,76.4
2023-05-06T01:49:56.158Z,76.3
2023-05-06T01:54:52.412Z,76.3
2023-05-06T01:59:46.352Z,76.1
2023-05-06T02:04:52.766Z,76.2
2023-05-06T02:09:59.438Z,76.2
2023-05-06T02:20:12.158Z,76.1
2023-05-06T02:25:18.689Z,76.1
2023-05-06T02:30:45.018Z,75.9
2023-05-06T02:35:35.359Z,75.9
2023-05-06T02:40:37.882Z,75.8
2023-05-06T02:46:08.309Z,76.0
2023-05-06T02:50:51.077Z,76.0
2023-05-06T02:56:17.810Z,75.9
2023-05-06T03:01:24.399Z,76.5
2023-05-06T03:11:52.819Z,75.8
2023-05-06T03:16:28.204Z,75.9
2023-05-06T03:21:54.576Z,75.8
2023-05-06T03:31:46.612Z,75.8
2023-05-06T03:37:17.040Z,75.8
2023-05-06T03:42:20.506Z,75.7
2023-05-06T03:47:07.085Z,75.7
2023-05-06T03:52:40.942Z,75.6
2023-05-06T03:57:23.278Z,75.6
2023-05-06T04:02:32.951Z,76.4
2023-05-06T04:07:59.334Z,75.7
2023-05-06T04:13:07.346Z,75.7
2023-05-06T04:17:57.766Z,75.9
2023-05-06T04:22:59.996Z,75.8
2023-05-06T04:28:30.427Z,75.6
2023-05-06T04:33:02.833Z,75.6
2023-05-06T04:38:19.227Z,75.5
2023-05-06T04:43:29.214Z,75.7
2023-05-06T04:54:16.377Z,75.5
2023-05-06T04:59:23.655Z,75.2
2023-05-06T05:04:54.094Z,75.1
2023-05-06T05:09:50.546Z,75.1
2023-05-06T05:14:42.914Z,75.0
2023-05-06T05:19:49.343Z,74.8
2023-05-06T05:24:59.871Z,75.0
2023-05-06T05:30:02.112Z,75.3
2023-05-06T05:35:08.692Z,76.3
2023-05-06T05:40:15.061Z,76.7
2023-05-06T05:45:21.228Z,76.4
2023-05-06T05:50:17.579Z,76.1
2023-05-06T06:00:40.553Z,75.9
2023-05-06T06:06:06.979Z,76.3
2023-05-06T06:11:13.408Z,76.4
2023-05-06T06:15:49.705Z,77.8
2023-05-06T06:21:06.093Z,76.8
2023-05-06T06:26:12.590Z,77.0
2023-05-06T06:31:18.989Z,77.1
2023-05-06T06:36:25.220Z,78.7
2023-05-06T06:41:31.595Z,77.9
2023-05-06T06:46:38.120Z,76.9
2023-05-06T06:51:44.507Z,77.6
2023-05-06T06:56:50.916Z,78.5
2023-05-06T07:01:47.281Z,78.1
2023-05-06T07:07:31.724Z,78.5
2023-05-06T07:12:10.062Z,78.6
2023-05-06T07:17:16.629Z,78.3
2023-05-06T07:22:22.869Z,78.9
2023-05-06T07:27:29.231Z,79.4
2023-05-06T07:32:25.709Z,79.8
2023-05-06T07:37:42.187Z,78.0
2023-05-06T07:42:39.268Z,77.1
2023-05-06T07:53:02.938Z,76.3
2023-05-06T07:58:09.329Z,75.6
2023-05-06T08:03:36.585Z,75.3
2023-05-06T08:08:22.680Z,74.3
2023-05-06T08:13:29.045Z,74.0
2023-05-06T08:23:42.022Z,72.8
2023-05-06T08:28:48.388Z,72.0
2023-05-06T08:33:55.088Z,70.7
2023-05-06T08:39:01.195Z,70.1
2023-05-06T08:49:13.921Z,69.8
2023-05-06T08:54:10.365Z,69.4
2023-05-06T08:59:26.803Z,69.4
2023-05-06T09:04:33.297Z,69.5
2023-05-06T09:09:39.806Z,69.2
2023-05-06T09:14:46.050Z,68.8
2023-05-06T09:19:52.438Z,67.9
2023-05-06T09:24:58.897Z,67.5
2023-05-06T09:30:05.202Z,67.0
2023-05-06T09:35:31.593Z,66.6
2023-05-06T09:40:18.326Z,66.2
2023-05-06T09:45:24.479Z,65.9
2023-05-06T09:56:18.313Z,66.0
2023-05-06T10:06:26.955Z,65.9
2023-05-06T10:11:37.192Z,66.2
2023-05-06T10:16:32.423Z,66.3
2023-05-06T10:21:50.334Z,65.7
2023-05-06T10:27:52.936Z,66.1
2023-05-06T10:42:16.444Z,67.9
2023-05-06T10:47:22.879Z,68.1
2023-05-06T10:54:05.464Z,68.6
2023-05-06T10:57:59.648Z,67.8
2023-05-06T11:03:02.218Z,66.9
2023-05-06T11:07:48.381Z,65.7
2023-05-06T11:12:58.369Z,64.9
2023-05-06T11:18:04.848Z,64.9
2023-05-06T11:23:32.686Z,65.1
2023-05-06T11:28:43.089Z,65.2
2023-05-06T11:33:25.441Z,64.1
2023-05-06T11:43:39.769Z,63.4
2023-05-06T11:48:46.514Z,62.5
2023-05-06T11:53:52.636Z,63.3
2023-05-06T12:09:11.789Z,63.7
2023-05-06T12:14:18.173Z,63.4
2023-05-06T12:19:14.683Z,62.7
2023-05-06T12:24:51.092Z,63.4
2023-05-06T12:34:44.154Z,63.8
2023-05-06T12:39:40.488Z,64.4
2023-05-06T12:44:56.883Z,64.7
2023-05-06T12:50:03.329Z,65.4
2023-05-06T12:55:09.724Z,65.7
2023-05-06T13:00:16.065Z,65.9
2023-05-06T13:10:29.025Z,67.0
2023-05-06T13:20:45.711Z,68.1
2023-05-06T13:36:24.891Z,68.6
2023-05-06T13:41:07.647Z,68.3
2023-05-06T13:46:13.947Z,68.3
2023-05-06T13:51:20.294Z,68.5
2023-05-06T13:56:26.806Z,68.0
2023-05-06T14:01:53.140Z,68.3
2023-05-06T14:06:39.450Z,67.4
2023-05-06T14:11:49.538Z,67.5
2023-05-06T14:16:59.991Z,67.2
2023-05-06T14:22:02.381Z,67.0
2023-05-06T14:27:08.914Z,66.0
2023-05-06T14:32:39.268Z,67.1
2023-05-06T14:37:45.615Z,67.6
2023-05-06T14:42:27.970Z,67.4
2023-05-06T14:47:34.344Z,67.6
2023-05-06T14:53:02.981Z,67.2
2023-05-06T14:57:47.159Z,67.5
2023-05-06T15:02:53.790Z,67.6
2023-05-06T15:08:04.081Z,67.0
2023-05-06T15:13:06.478Z,67.3
2023-05-06T15:18:12.833Z,67.9
2023-05-06T15:23:19.441Z,67.7
2023-05-06T15:28:25.936Z,67.9
2023-05-06T15:33:35.817Z,68.0
2023-05-06T15:39:02.317Z,68.3
2023-05-06T15:43:48.737Z,68.3
2023-05-06T15:48:45.731Z,69.0
2023-05-06T15:53:51.522Z,69.2
2023-05-06T15:59:08.129Z,69.9
2023-05-06T16:04:28.543Z,70.6
2023-05-06T16:09:20.791Z,70.9
2023-05-06T16:14:27.314Z,70.6
2023-05-06T16:20:11.515Z,71.3
2023-05-06T16:34:46.557Z,71.3
2023-05-06T16:40:02.968Z,70.5
2023-05-06T16:45:09.478Z,70.8
2023-05-06T16:50:15.940Z,71.1
2023-05-06T16:55:22.313Z,71.1
2023-05-06T17:00:28.768Z,71.5
2023-05-06T17:05:25.103Z,71.4
2023-05-06T17:10:41.626Z,71.7
2023-05-06T17:16:08.260Z,72.4
2023-05-06T17:20:58.098Z,71.9
2023-05-06T17:26:08.436Z,72.1
2023-05-06T17:32:23.702Z,72.4
2023-05-06T17:41:58.991Z,72.2
2023-05-06T17:47:53.202Z,72.3
2023-05-06T17:53:00.562Z,72.5
2023-05-06T17:58:06.946Z,72.3
2023-05-06T18:03:51.097Z,72.8
2023-05-06T18:08:24.252Z,72.5
2023-05-06T18:13:30.889Z,73.2
2023-05-06T18:18:37.257Z,73.5
2023-05-06T18:24:18.833Z,73.3
2023-05-06T18:29:26.188Z,73.2
2023-05-06T18:34:32.634Z,74.6
2023-05-06T18:39:39.176Z,74.2
2023-05-06T18:44:44.505Z,74.4
2023-05-06T18:54:59.528Z,74.6
2023-05-06T19:10:08.799Z,74.7
2023-05-06T19:20:31.440Z,74.9
2023-05-06T19:25:37.926Z,75.3
2023-05-06T19:30:45.590Z,75.5
2023-05-06T19:35:51.838Z,76.0
2023-05-06T19:40:58.432Z,76.1
2023-05-06T19:46:04.628Z,76.8
2023-05-06T20:01:28.518Z,76.1
2023-05-06T20:06:35.823Z,76.1
2023-05-06T20:17:37.508Z,76.2
2023-05-06T20:22:10.872Z,76.0
2023-05-06T20:27:17.286Z,76.2
2023-05-06T20:32:13.634Z,76.4
2023-05-06T20:37:30.879Z,76.8
2023-05-06T20:42:37.251Z,76.8
2023-05-06T20:47:43.643Z,77.0
2023-05-06T20:53:18.064Z,77.2
2023-05-06T20:57:56.408Z,77.3
2023-05-06T21:03:02.871Z,77.4
2023-05-06T21:08:29.354Z,78.0
2023-05-06T21:13:05.589Z,77.6
2023-05-06T21:18:22.163Z,77.6
2023-05-06T21:23:28.354Z,77.8
2023-05-06T21:28:34.745Z,77.7
2023-05-06T21:33:41.114Z,77.9
2023-05-06T21:38:47.490Z,78.2
2023-05-06T21:43:53.890Z,78.1
2023-05-06T21:49:00.317Z,78.2
2023-05-06T21:53:56.711Z,78.4
2023-05-06T21:59:54.343Z,78.3
2023-05-06T22:04:18.716Z,78.3
2023-05-06T22:09:26.114Z,78.2
2023-05-06T22:15:30.740Z,78.2
2023-05-06T22:20:13.980Z,78.3
2023-05-06T22:25:20.352Z,78.4
2023-05-06T22:30:26.746Z,78.2
2023-05-06T22:35:33.179Z,78.3
2023-05-06T22:40:39.547Z,78.4
2023-05-06T22:45:45.983Z,78.3
2023-05-06T22:51:12.469Z,78.4
2023-05-06T22:55:58.689Z,78.4
2023-05-06T23:01:08.667Z,78.5
2023-05-06T23:06:15.113Z,78.5
2023-05-06T23:11:25.399Z,78.5
2023-05-06T23:21:34.924Z,78.4
2023-05-06T23:27:37.325Z,78.5
2023-05-06T23:31:37.575Z,78.6
2023-05-06T23:36:54.015Z,78.5
2023-05-06T23:41:50.343Z,78.5
2023-05-06T23:47:44.900Z,78.4
2023-05-06T23:52:03.311Z,78.7
2023-05-06T23:57:09.654Z,78.4
